createdAt,value
2022-11-24T00:01:18.973Z,100.00
2022-11-24T00:03:52.997Z,100.00
2022-11-24T00:06:22.228Z,100.00
2022-11-24T00:08:50.104Z,100.00
2022-11-24T00:11:20.436Z,100.00
2022-11-24T00:13:48.631Z,100.00
2022-11-24T00:16:19.361Z,100.00
2022-11-24T00:18:49.757Z,100.00
2022-11-24T00:21:20.364Z,100.00
2022-11-24T00:23:50.494Z,100.00
2022-11-24T00:26:20.277Z,100.00
2022-11-24T00:28:49.889Z,100.00
2022-11-24T00:31:20.550Z,100.00
2022-11-24T00:33:50.397Z,100.00
2022-11-24T00:36:19.737Z,100.00
2022-11-24T00:38:49.450Z,100.00
2022-11-24T00:41:17.702Z,100.00
2022-11-24T00:43:45.479Z,100.00
2022-11-24T00:46:13.442Z,100.00
2022-11-24T00:48:41.346Z,100.00
2022-11-24T00:51:11.208Z,100.00
2022-11-24T00:53:39.050Z,100.00
2022-11-24T00:56:09.532Z,100.00
2022-11-24T00:58:37.921Z,100.00
2022-11-24T01:01:09.463Z,100.00
2022-11-24T01:03:37.650Z,100.00
2022-11-24T01:06:06.888Z,100.00
2022-11-24T01:08:35.256Z,100.00
2022-11-24T01:11:15.704Z,100.00
2022-11-24T01:13:45.314Z,100.00
2022-11-24T01:16:18.133Z,100.00
2022-11-24T01:18:46.699Z,100.00
2022-11-24T01:21:15.273Z,100.00
2022-11-24T01:23:44.683Z,100.00
2022-11-24T01:26:16.635Z,100.00
2022-11-24T01:28:47.530Z,100.00
2022-11-24T01:31:17.703Z,100.00
2022-11-24T01:33:45.553Z,100.00
2022-11-24T01:36:13.680Z,100.00
2022-11-24T01:38:41.631Z,100.00
2022-11-24T01:41:14.540Z,100.00
2022-11-24T01:43:43.545Z,100.00
2022-11-24T01:46:19.243Z,100.00
2022-11-24T01:48:52.074Z,100.00
2022-11-24T01:51:24.673Z,100.00
2022-11-24T01:53:57.970Z,100.00
2022-11-24T01:56:28.726Z,100.00
2022-11-24T01:59:00.330Z,100.00
2022-11-24T02:01:29.406Z,100.00
2022-11-24T02:03:58.450Z,100.00
2022-11-24T02:06:29.126Z,100.00
2022-11-24T02:09:01.149Z,100.00
2022-11-24T02:11:35.930Z,100.00
2022-11-24T02:14:06.266Z,100.00
2022-11-24T02:16:36.521Z,100.00
2022-11-24T02:19:10.413Z,100.00
2022-11-24T02:21:38.422Z,100.00
2022-11-24T02:24:12.797Z,100.00
2022-11-24T02:26:44.401Z,100.00
2022-11-24T02:29:13.382Z,100.00
2022-11-24T02:31:46.457Z,100.00
2022-11-24T02:34:14.367Z,100.00
2022-11-24T02:36:42.436Z,100.00
2022-11-24T02:39:12.821Z,100.00
2022-11-24T02:41:44.903Z,100.00
2022-11-24T02:44:16.646Z,100.00
2022-11-24T02:46:44.885Z,100.00
2022-11-24T02:49:12.786Z,100.00
2022-11-24T02:51:41.025Z,100.00
2022-11-24T02:54:08.867Z,100.00
2022-11-24T02:56:36.735Z,100.00
2022-11-24T02:59:06.030Z,100.00
2022-11-24T03:01:33.857Z,100.00
2022-11-24T03:04:01.919Z,100.00
2022-11-24T03:06:29.739Z,100.00
2022-11-24T03:08:57.832Z,100.00
2022-11-24T03:11:25.867Z,100.00
2022-11-24T03:13:54.042Z,100.00
2022-11-24T03:16:23.573Z,100.00
2022-11-24T03:18:52.036Z,100.00
2022-11-24T03:21:20.347Z,100.00
2022-11-24T03:23:48.477Z,100.00
2022-11-24T03:26:18.670Z,100.00
2022-11-24T03:28:46.755Z,100.00
2022-11-24T03:31:14.851Z,100.00
2022-11-24T03:33:44.158Z,100.00
2022-11-24T03:36:11.979Z,100.00
2022-11-24T03:38:39.916Z,100.00
2022-11-24T03:41:07.820Z,100.00
2022-11-24T03:43:40.399Z,100.00
2022-11-24T03:46:11.684Z,100.00
2022-11-24T03:48:39.824Z,100.00
2022-11-24T03:51:09.102Z,100.00
2022-11-24T03:53:37.214Z,100.00
2022-11-24T03:56:05.358Z,100.00
2022-11-24T03:58:33.267Z,100.00
2022-11-24T04:01:01.044Z,100.00
2022-11-24T04:03:28.884Z,100.00
2022-11-24T04:05:56.857Z,100.00
2022-11-24T04:08:26.061Z,100.00
2022-11-24T04:10:55.283Z,100.00
2022-11-24T04:13:23.649Z,100.00
2022-11-24T04:15:51.930Z,100.00
2022-11-24T04:18:20.879Z,100.00
2022-11-24T04:20:51.489Z,100.00
2022-11-24T04:23:20.268Z,100.00
2022-11-24T04:25:49.408Z,100.00
2022-11-24T04:28:17.422Z,100.00
2022-11-24T04:30:45.380Z,100.00
2022-11-24T04:33:14.061Z,100.00
2022-11-24T04:35:42.109Z,100.00
2022-11-24T04:38:09.964Z,100.00
2022-11-24T04:40:38.752Z,100.00
2022-11-24T04:43:08.115Z,100.00
2022-11-24T04:45:36.125Z,100.00
2022-11-24T04:48:04.137Z,100.00
2022-11-24T04:50:31.927Z,100.00
2022-11-24T04:52:59.771Z,100.00
2022-11-24T04:55:27.710Z,100.00
2022-11-24T04:57:55.523Z,100.00
2022-11-24T05:00:24.824Z,100.00
2022-11-24T05:02:52.662Z,100.00
2022-11-24T05:05:20.676Z,100.00
2022-11-24T05:07:48.795Z,100.00
2022-11-24T05:10:34.583Z,100.00
2022-11-24T05:13:04.352Z,100.00
2022-11-24T05:15:34.202Z,100.00
2022-11-24T05:18:06.003Z,100.00
2022-11-24T05:20:33.870Z,100.00
2022-11-24T05:23:05.012Z,100.00
2022-11-24T05:25:33.551Z,100.00
2022-11-24T05:28:02.495Z,100.00
2022-11-24T05:30:30.594Z,100.00
2022-11-24T05:33:00.209Z,100.00
2022-11-24T05:35:28.368Z,100.00
2022-11-24T05:37:56.405Z,100.00
2022-11-24T05:40:24.207Z,100.00
2022-11-24T05:42:52.100Z,100.00
2022-11-24T05:45:21.590Z,100.00
2022-11-24T05:47:50.896Z,100.00
2022-11-24T05:50:22.035Z,100.00
2022-11-24T05:52:50.538Z,100.00
2022-11-24T05:55:20.505Z,100.00
2022-11-24T05:57:48.317Z,100.00
2022-11-24T06:00:18.243Z,100.00
2022-11-24T06:02:46.218Z,100.00
2022-11-24T06:05:14.294Z,100.00
2022-11-24T06:07:43.483Z,100.00
2022-11-24T06:10:11.667Z,100.00
2022-11-24T06:12:39.868Z,100.00
2022-11-24T06:15:08.547Z,100.00
2022-11-24T06:17:36.568Z,100.00
2022-11-24T06:20:04.949Z,100.00
2022-11-24T06:22:33.500Z,100.00
2022-11-24T06:25:02.930Z,100.00
2022-11-24T06:27:30.693Z,100.00
2022-11-24T06:29:58.611Z,100.00
2022-11-24T06:32:26.429Z,100.00
2022-11-24T06:34:54.409Z,100.00
2022-11-24T06:37:22.214Z,99.84
2022-11-24T06:39:50.166Z,100.00
2022-11-24T06:42:19.708Z,99.98
2022-11-24T06:44:48.033Z,99.74
2022-11-24T06:47:16.208Z,99.91
2022-11-24T06:49:44.212Z,100.00
2022-11-24T06:52:12.109Z,99.69
2022-11-24T06:54:41.968Z,99.23
2022-11-24T06:57:10.080Z,99.47
2022-11-24T06:59:39.330Z,99.30
2022-11-24T07:02:07.626Z,99.53
2022-11-24T07:04:35.995Z,99.47
2022-11-24T07:07:04.053Z,99.73
2022-11-24T07:09:32.247Z,99.54
2022-11-24T07:12:00.205Z,99.37
2022-11-24T07:14:27.982Z,98.87
2022-11-24T07:16:57.349Z,99.19
2022-11-24T07:19:25.463Z,98.87
2022-11-24T07:21:53.895Z,98.99
2022-11-24T07:24:21.746Z,98.67
2022-11-24T07:26:49.553Z,99.03
2022-11-24T07:29:17.508Z,98.51
2022-11-24T07:31:46.039Z,98.33
2022-11-24T07:34:15.775Z,98.46
2022-11-24T07:36:45.163Z,98.04
2022-11-24T07:39:13.108Z,97.83
2022-11-24T07:41:40.963Z,97.76
2022-11-24T07:44:09.000Z,97.81
2022-11-24T07:46:36.835Z,97.72
2022-11-24T07:49:04.834Z,97.79
2022-11-24T07:51:34.360Z,97.49
2022-11-24T07:54:02.439Z,97.52
2022-11-24T07:56:30.282Z,97.59
2022-11-24T07:58:58.390Z,97.27
2022-11-24T08:01:26.265Z,96.81
2022-11-24T08:03:54.261Z,96.51
2022-11-24T08:06:26.114Z,96.19
2022-11-24T08:08:58.873Z,96.46
2022-11-24T08:11:27.309Z,96.24
2022-11-24T08:13:55.253Z,96.40
2022-11-24T08:16:23.203Z,96.44
2022-11-24T08:18:52.679Z,96.74
2022-11-24T08:21:23.218Z,96.01
2022-11-24T08:23:54.926Z,95.93
2022-11-24T08:26:25.435Z,95.98
2022-11-24T08:28:56.694Z,95.76
2022-11-24T08:31:27.412Z,95.28
2022-11-24T08:33:56.449Z,96.22
2022-11-24T08:36:24.326Z,96.01
2022-11-24T08:38:55.991Z,95.95
2022-11-24T08:41:26.014Z,96.92
2022-11-24T08:43:54.471Z,96.64
2022-11-24T08:46:23.512Z,96.14
2022-11-24T08:48:53.425Z,96.48
2022-11-24T08:51:24.449Z,96.43
2022-11-24T08:53:57.059Z,96.15
2022-11-24T08:56:27.143Z,96.41
2022-11-24T08:58:55.799Z,96.60
2022-11-24T09:01:24.427Z,95.88
2022-11-24T09:03:53.254Z,96.27
2022-11-24T09:06:23.883Z,96.51
2022-11-24T09:08:52.033Z,96.68
2022-11-24T09:11:20.427Z,96.67
2022-11-24T09:13:49.630Z,96.20
2022-11-24T09:16:19.023Z,95.89
2022-11-24T09:18:47.908Z,96.10
2022-11-24T09:21:17.084Z,96.65
2022-11-24T09:23:46.991Z,97.45
2022-11-24T09:26:17.587Z,97.04
2022-11-24T09:28:45.802Z,96.90
2022-11-24T09:31:18.021Z,96.65
2022-11-24T09:33:46.763Z,96.23
2022-11-24T09:36:15.292Z,96.40
2022-11-24T09:38:43.224Z,96.22
2022-11-24T09:41:32.323Z,96.17
2022-11-24T09:44:04.594Z,96.30
2022-11-24T09:46:42.051Z,96.98
2022-11-24T09:49:15.263Z,96.78
2022-11-24T09:51:46.857Z,96.69
2022-11-24T09:54:19.427Z,96.30
2022-11-24T09:56:48.713Z,96.90
2022-11-24T09:59:18.844Z,96.48
2022-11-24T10:01:49.608Z,96.56
2022-11-24T10:04:21.038Z,96.35
2022-11-24T10:06:56.036Z,96.99
2022-11-24T10:09:39.961Z,96.55
2022-11-24T10:12:21.893Z,96.48
2022-11-24T10:15:14.828Z,95.90
2022-11-24T10:17:55.255Z,95.71
2022-11-24T10:20:29.731Z,95.01
2022-11-24T10:23:10.180Z,94.81
2022-11-24T10:25:47.411Z,94.38
2022-11-24T10:28:17.115Z,95.31
2022-11-24T10:30:45.620Z,95.20
2022-11-24T10:33:19.391Z,95.13
2022-11-24T10:35:52.543Z,94.89
2022-11-24T10:38:31.745Z,94.21
2022-11-24T10:41:04.241Z,94.82
2022-11-24T10:43:32.520Z,94.37
2022-11-24T10:46:10.947Z,93.76
2022-11-24T10:48:45.049Z,94.15
2022-11-24T10:51:43.883Z,93.27
2022-11-24T10:54:17.928Z,93.42
2022-11-24T10:56:47.964Z,93.07
2022-11-24T10:59:33.361Z,92.42
2022-11-24T11:02:02.223Z,93.26
2022-11-24T11:04:33.267Z,93.36
2022-11-24T11:07:17.336Z,92.01
2022-11-24T11:09:45.471Z,92.75
2022-11-24T11:12:42.819Z,92.03
2022-11-24T11:15:27.150Z,91.51
2022-11-24T11:17:59.444Z,92.63
2022-11-24T11:20:32.470Z,93.03
2022-11-24T11:23:03.023Z,92.53
2022-11-24T11:25:34.140Z,91.94
2022-11-24T11:28:35.184Z,91.13
2022-11-24T11:31:22.184Z,92.46
2022-11-24T11:34:09.408Z,91.41
2022-11-24T11:36:45.041Z,91.53
2022-11-24T11:39:23.338Z,91.18
2022-11-24T11:41:54.175Z,91.53
2022-11-24T11:44:32.989Z,90.73
2022-11-24T11:47:04.323Z,90.92
2022-11-24T11:49:32.276Z,91.25
2022-11-24T11:52:22.227Z,89.82
2022-11-24T11:55:17.395Z,89.91
2022-11-24T11:57:52.007Z,90.01
2022-11-24T12:00:22.397Z,89.33
2022-11-24T12:03:15.907Z,89.60
2022-11-24T12:05:53.563Z,89.83
2022-11-24T12:09:03.256Z,89.24
2022-11-24T12:11:36.021Z,90.09
2022-11-24T12:14:26.492Z,88.88
2022-11-24T12:17:03.545Z,90.22
2022-11-24T12:19:52.371Z,89.26
2022-11-24T12:22:30.567Z,89.24
2022-11-24T12:25:15.923Z,88.24
2022-11-24T12:27:52.152Z,88.94
2022-11-24T12:30:23.524Z,89.22
2022-11-24T12:33:08.504Z,87.77
2022-11-24T12:35:39.838Z,88.74
2022-11-24T12:38:22.606Z,88.00
2022-11-24T12:41:33.564Z,87.80
2022-11-24T12:43:58.896Z,87.54
2022-11-24T12:46:38.792Z,87.39
2022-11-24T12:49:21.038Z,87.24
2022-11-24T12:51:55.990Z,87.82
2022-11-24T12:54:26.026Z,87.15
2022-11-24T12:57:05.985Z,86.98
2022-11-24T12:59:40.266Z,87.73
2022-11-24T13:02:24.088Z,87.50
2022-11-24T13:05:00.822Z,86.93
2022-11-24T13:07:41.180Z,86.78
2022-11-24T13:10:55.408Z,85.75
2022-11-24T13:13:25.194Z,87.15
2022-11-24T13:19:08.601Z,87.04
2022-11-24T13:21:52.072Z,85.78
2022-11-24T13:24:25.471Z,86.54
2022-11-24T13:26:55.784Z,87.06
2022-11-24T13:29:39.004Z,85.74
2022-11-24T13:32:53.032Z,85.77
2022-11-24T13:35:20.982Z,86.69
2022-11-24T13:37:51.854Z,86.42
2022-11-24T13:40:45.877Z,85.78
2022-11-24T13:43:21.923Z,86.36
2022-11-24T13:45:53.797Z,86.63
2022-11-24T13:48:59.527Z,85.68
2022-11-24T13:51:27.917Z,86.71
2022-11-24T13:54:00.932Z,86.64
2022-11-24T13:56:32.069Z,86.65
2022-11-24T13:59:02.688Z,86.19
2022-11-24T14:01:33.970Z,86.75
2022-11-24T14:04:32.918Z,86.07
2022-11-24T14:07:08.274Z,86.91
2022-11-24T14:09:42.868Z,86.90
2022-11-24T14:12:15.696Z,87.07
2022-11-24T14:14:45.551Z,87.11
2022-11-24T14:17:23.029Z,87.25
2022-11-24T14:19:53.553Z,87.34
2022-11-24T14:22:24.437Z,87.12
2022-11-24T14:24:57.218Z,87.43
2022-11-24T14:27:30.904Z,87.33
2022-11-24T14:30:01.684Z,87.44
2022-11-24T14:32:31.114Z,87.32
2022-11-24T14:34:59.341Z,87.13
2022-11-24T14:37:27.384Z,87.54
2022-11-24T14:39:55.234Z,86.80
2022-11-24T14:42:25.432Z,86.73
2022-11-24T14:44:56.723Z,86.90
2022-11-24T14:47:31.244Z,86.88
2022-11-24T14:50:11.031Z,86.57
2022-11-24T14:52:45.716Z,86.45
2022-11-24T14:55:26.191Z,86.62
2022-11-24T14:57:55.655Z,86.90
2022-11-24T15:00:29.298Z,87.04
2022-11-24T15:03:13.535Z,86.59
2022-11-24T15:05:58.743Z,86.71
2022-11-24T15:08:29.146Z,86.95
2022-11-24T15:11:00.425Z,87.65
2022-11-24T15:13:30.218Z,87.63
2022-11-24T15:16:03.284Z,87.72
2022-11-24T15:18:38.800Z,87.83
2022-11-24T15:21:08.909Z,88.17
2022-11-24T15:23:41.279Z,87.99
2022-11-24T15:26:31.510Z,87.56
2022-11-24T15:29:02.487Z,88.04
2022-11-24T15:31:30.494Z,88.18
2022-11-24T15:33:58.409Z,88.27
2022-11-24T15:36:27.651Z,88.35
2022-11-24T15:38:55.668Z,88.86
2022-11-24T15:41:29.242Z,88.67
2022-11-24T15:43:59.328Z,88.72
2022-11-24T15:46:27.968Z,89.12
2022-11-24T15:48:56.261Z,88.72
2022-11-24T15:51:27.825Z,88.88
2022-11-24T15:54:01.062Z,89.03
2022-11-24T15:56:34.135Z,88.68
2022-11-24T15:59:02.067Z,89.18
2022-11-24T16:01:32.710Z,89.05
2022-11-24T16:04:03.401Z,89.35
2022-11-24T16:06:33.059Z,89.04
2022-11-24T16:09:01.478Z,88.98
2022-11-24T16:11:29.352Z,89.28
2022-11-24T16:13:57.293Z,88.80
2022-11-24T16:16:25.697Z,88.81
2022-11-24T16:18:54.102Z,88.84
2022-11-24T16:21:22.126Z,88.71
2022-11-24T16:23:52.007Z,89.14
2022-11-24T16:26:19.866Z,89.52
2022-11-24T16:28:47.881Z,89.10
2022-11-24T16:31:16.611Z,89.36
2022-11-24T16:33:46.333Z,89.37
2022-11-24T16:36:14.901Z,89.44
2022-11-24T16:38:42.736Z,89.63
2022-11-24T16:41:12.480Z,89.31
2022-11-24T16:43:40.616Z,89.37
2022-11-24T16:46:19.096Z,89.61
2022-11-24T16:48:48.952Z,89.76
2022-11-24T16:51:19.411Z,89.79
2022-11-24T16:53:47.729Z,89.85
2022-11-24T16:56:17.640Z,89.41
2022-11-24T16:58:45.679Z,89.64
2022-11-24T17:01:14.723Z,89.76
2022-11-24T17:03:42.747Z,89.44
2022-11-24T17:06:12.411Z,90.18
2022-11-24T17:08:41.541Z,90.12
2022-11-24T17:11:10.305Z,90.10
2022-11-24T17:13:42.199Z,89.77
2022-11-24T17:16:12.167Z,90.47
2022-11-24T17:18:41.117Z,89.68
2022-11-24T17:21:12.512Z,90.06
2022-11-24T17:23:40.318Z,90.08
2022-11-24T17:26:11.687Z,90.98
2022-11-24T17:28:41.275Z,91.09
2022-11-24T17:31:09.847Z,92.04
2022-11-24T17:33:37.766Z,92.09
2022-11-24T17:36:08.135Z,92.69
2022-11-24T17:38:37.374Z,92.13
2022-11-24T17:41:05.344Z,92.46
2022-11-24T17:43:33.481Z,92.77
2022-11-24T17:46:04.237Z,92.72
2022-11-24T17:48:33.102Z,92.43
2022-11-24T17:51:06.331Z,92.25
2022-11-24T17:53:36.274Z,93.73
2022-11-24T17:56:05.769Z,92.94
2022-11-24T17:58:41.353Z,93.22
2022-11-24T18:01:13.362Z,92.72
2022-11-24T18:03:41.683Z,93.47
2022-11-24T18:06:11.461Z,92.91
2022-11-24T18:08:41.253Z,93.47
2022-11-24T18:11:11.149Z,93.41
2022-11-24T18:13:56.466Z,92.62
2022-11-24T18:16:30.018Z,92.88
2022-11-24T18:19:14.359Z,92.71
2022-11-24T18:21:43.848Z,93.18
2022-11-24T18:24:13.293Z,92.65
2022-11-24T18:26:42.778Z,93.23
2022-11-24T18:29:11.420Z,93.52
2022-11-24T18:31:41.178Z,93.12
2022-11-24T18:34:09.595Z,93.36
2022-11-24T18:36:37.961Z,92.89
2022-11-24T18:39:07.454Z,92.82
2022-11-24T18:41:35.593Z,92.98
2022-11-24T18:44:07.683Z,93.01
2022-11-24T18:46:35.935Z,93.09
2022-11-24T18:49:05.821Z,92.85
2022-11-24T18:51:33.779Z,93.67
2022-11-24T18:54:03.028Z,93.25
2022-11-24T18:56:31.513Z,93.37
2022-11-24T18:58:59.402Z,92.91
2022-11-24T19:01:29.467Z,93.53
2022-11-24T19:03:59.993Z,93.48
2022-11-24T19:06:32.497Z,93.45
2022-11-24T19:09:02.403Z,92.74
2022-11-24T19:11:32.678Z,93.00
2022-11-24T19:14:01.895Z,92.46
2022-11-24T19:16:30.335Z,92.86
2022-11-24T19:19:00.204Z,92.45
2022-11-24T19:21:31.577Z,91.93
2022-11-24T19:24:04.947Z,92.33
2022-11-24T19:26:35.258Z,92.78
2022-11-24T19:29:03.692Z,92.23
2022-11-24T19:31:31.946Z,92.62
2022-11-24T19:34:00.176Z,92.58
2022-11-24T19:36:29.827Z,92.75
2022-11-24T19:38:59.618Z,92.69
2022-11-24T19:41:29.351Z,92.77
2022-11-24T19:43:58.869Z,92.81
2022-11-24T19:46:29.857Z,92.93
2022-11-24T19:49:00.569Z,92.42
2022-11-24T19:51:31.987Z,92.65
2022-11-24T19:54:00.719Z,92.77
2022-11-24T19:56:30.130Z,93.00
2022-11-24T19:58:58.411Z,92.15
2022-11-24T20:01:28.261Z,92.55
2022-11-24T20:03:58.852Z,92.52
2022-11-24T20:06:28.260Z,92.05
2022-11-24T20:08:58.521Z,91.91
2022-11-24T20:11:26.500Z,91.98
2022-11-24T20:13:54.618Z,92.08
2022-11-24T20:16:26.613Z,92.90
2022-11-24T20:18:56.732Z,92.57
2022-11-24T20:21:27.677Z,92.67
2022-11-24T20:23:59.266Z,92.08
2022-11-24T20:26:29.274Z,92.93
2022-11-24T20:28:59.294Z,92.50
2022-11-24T20:31:29.379Z,92.64
2022-11-24T20:33:57.544Z,92.73
2022-11-24T20:36:26.930Z,92.28
2022-11-24T20:38:55.152Z,92.76
2022-11-24T20:41:27.051Z,92.22
2022-11-24T20:43:56.596Z,92.49
2022-11-24T20:46:26.177Z,92.83
2022-11-24T20:48:55.012Z,91.92
2022-11-24T20:51:25.222Z,92.10
2022-11-24T20:53:55.371Z,91.98
2022-11-24T20:56:26.334Z,92.44
2022-11-24T20:58:55.333Z,92.03
2022-11-24T21:01:25.336Z,92.88
2022-11-24T21:03:55.620Z,91.98
2022-11-24T21:06:24.377Z,92.48
2022-11-24T21:08:52.657Z,92.87
2022-11-24T21:11:21.721Z,92.36
2022-11-24T21:13:52.018Z,93.13
2022-11-24T21:16:22.464Z,93.04
2022-11-24T21:18:52.402Z,92.99
2022-11-24T21:21:21.412Z,92.57
2022-11-24T21:23:50.513Z,92.65
2022-11-24T21:26:19.464Z,92.74
2022-11-24T21:28:48.762Z,92.20
2022-11-24T21:31:20.698Z,92.67
2022-11-24T21:33:50.381Z,92.48
2022-11-24T21:36:21.107Z,92.35
2022-11-24T21:38:51.807Z,92.87
2022-11-24T21:41:20.708Z,93.13
2022-11-24T21:43:49.012Z,93.42
2022-11-24T21:46:18.778Z,92.45
2022-11-24T21:48:46.648Z,93.05
2022-11-24T21:51:16.593Z,92.71
2022-11-24T21:53:45.876Z,93.26
2022-11-24T21:56:15.658Z,92.71
2022-11-24T21:58:47.604Z,93.66
2022-11-24T22:01:16.679Z,93.66
2022-11-24T22:03:46.923Z,93.27
2022-11-24T22:06:15.305Z,93.57
2022-11-24T22:08:43.266Z,93.27
2022-11-24T22:11:15.019Z,93.88
2022-11-24T22:13:44.234Z,92.79
2022-11-24T22:16:13.541Z,93.23
2022-11-24T22:18:43.164Z,93.28
2022-11-24T22:21:15.003Z,93.05
2022-11-24T22:23:43.725Z,92.96
2022-11-24T22:26:14.110Z,93.30
2022-11-24T22:28:42.739Z,93.79
2022-11-24T22:31:12.995Z,93.91
2022-11-24T22:33:41.328Z,93.76
2022-11-24T22:36:09.600Z,94.14
2022-11-24T22:38:39.274Z,94.01
2022-11-24T22:41:09.213Z,93.40
2022-11-24T22:43:38.513Z,93.68
2022-11-24T22:46:07.026Z,93.71
2022-11-24T22:48:35.263Z,93.59
2022-11-24T22:51:05.029Z,94.04
2022-11-24T22:53:33.090Z,94.19
2022-11-24T22:56:07.743Z,94.05
2022-11-24T22:58:35.558Z,94.48
2022-11-24T23:01:07.045Z,94.09
2022-11-24T23:03:35.643Z,94.08
2022-11-24T23:06:05.039Z,94.07
2022-11-24T23:08:34.498Z,93.92
2022-11-24T23:11:03.346Z,94.59
2022-11-24T23:13:32.920Z,94.33
2022-11-24T23:16:02.908Z,93.91
2022-11-24T23:18:31.277Z,93.97
2022-11-24T23:21:05.915Z,94.82
2022-11-24T23:23:33.908Z,94.07
2022-11-24T23:26:02.483Z,94.48
2022-11-24T23:28:30.336Z,95.08
2022-11-24T23:31:05.058Z,94.49
2022-11-24T23:33:35.665Z,94.57
2022-11-24T23:36:04.732Z,94.88
2022-11-24T23:38:33.552Z,95.11
2022-11-24T23:41:04.478Z,94.94
2022-11-24T23:43:32.655Z,94.99
2022-11-24T23:46:04.203Z,94.29
2022-11-24T23:48:32.689Z,94.62
2022-11-24T23:51:05.452Z,94.22
2022-11-24T23:53:33.890Z,94.98
2022-11-24T23:56:02.090Z,94.31
2022-11-24T23:58:30.493Z,94.28
